ZKJEE NZWB-NZNS
Flight info
| Callsign | ZKJEE |
|---|---|
| Flight time | 0h 34m |
| Altitude | 10000 |
| Route | LUBSI |
| Aircraft | DHC6/L-SDFGR/C |
Departure
| Time | 2026-04-29 03:29 |
|---|---|
| Airport | Woodbourne Airport (NZWB) |
Arrival
| Time | 2026-04-29 04:03 |
|---|---|
| Airport | Nelson Airport (NZNS) |
| Time | Latitude | Longitude | Altitude | Speed | Heading |
|---|---|---|---|---|---|
| 2026-04-29 03:24 | -41.51827 | 173.86154 | 115 ft | 0 kts | 86° |
| 2026-04-29 03:28 | -41.51823 | 173.86224 | 115 ft | 33 kts | 86° |
| 2026-04-29 03:29 | -41.51784 | 173.86985 | 115 ft | 121 kts | 86° |
| 2026-04-29 03:29 | -41.51717 | 173.88261 | 274 ft | 142 kts | 86° |
| 2026-04-29 03:29 | -41.51640 | 173.89560 | 610 ft | 141 kts | 77° |
| 2026-04-29 03:29 | -41.51111 | 173.90602 | 963 ft | 135 kts | 40° |
| 2026-04-29 03:30 | -41.50441 | 173.91560 | 1323 ft | 145 kts | 40° |
| 2026-04-29 03:30 | -41.49770 | 173.92608 | 1690 ft | 151 kts | 43° |
| 2026-04-29 03:30 | -41.49115 | 173.93722 | 2048 ft | 155 kts | 46° |
| 2026-04-29 03:30 | -41.48483 | 173.94887 | 2405 ft | 157 kts | 47° |
| 2026-04-29 03:31 | -41.47245 | 173.97379 | 3061 ft | 167 kts | 53° |
| 2026-04-29 03:31 | -41.46628 | 173.98727 | 3421 ft | 170 kts | 55° |
| 2026-04-29 03:31 | -41.46023 | 174.00092 | 3776 ft | 172 kts | 55° |
| 2026-04-29 03:32 | -41.45407 | 174.01466 | 4129 ft | 173 kts | 54° |
| 2026-04-29 03:32 | -41.44798 | 174.02832 | 4477 ft | 174 kts | 55° |
| 2026-04-29 03:32 | -41.44175 | 174.04234 | 4832 ft | 174 kts | 54° |
| 2026-04-29 03:32 | -41.43534 | 174.05593 | 5179 ft | 173 kts | 47° |
| 2026-04-29 03:33 | -41.42741 | 174.06799 | 5536 ft | 171 kts | 39° |
| 2026-04-29 03:33 | -41.41927 | 174.07916 | 5881 ft | 171 kts | 39° |
| 2026-04-29 03:33 | -41.41108 | 174.09080 | 6233 ft | 172 kts | 40° |
| 2026-04-29 03:33 | -41.40311 | 174.10251 | 6581 ft | 172 kts | 41° |
| 2026-04-29 03:34 | -41.39407 | 174.11262 | 6920 ft | 162 kts | 14° |
| 2026-04-29 03:34 | -41.38396 | 174.11236 | 7265 ft | 142 kts | 327° |
| 2026-04-29 03:34 | -41.37736 | 174.10350 | 7637 ft | 133 kts | 301° |
| 2026-04-29 03:34 | -41.37214 | 174.09334 | 7988 ft | 134 kts | 302° |
| 2026-04-29 03:35 | -41.36604 | 174.08358 | 8344 ft | 136 kts | 308° |
| 2026-04-29 03:35 | -41.35924 | 174.07503 | 8690 ft | 138 kts | 313° |
| 2026-04-29 03:35 | -41.35188 | 174.06654 | 9046 ft | 138 kts | 313° |
| 2026-04-29 03:35 | -41.34701 | 174.05618 | 9378 ft | 134 kts | 278° |
| 2026-04-29 03:36 | -41.34880 | 174.04401 | 9747 ft | 136 kts | 255° |
| 2026-04-29 03:36 | -41.35233 | 174.03233 | 10066 ft | 139 kts | 252° |
| 2026-04-29 03:36 | -41.35633 | 174.02012 | 10124 ft | 151 kts | 251° |
| 2026-04-29 03:36 | -41.36070 | 174.00664 | 10036 ft | 163 kts | 251° |
| 2026-04-29 03:37 | -41.36525 | 173.99258 | 10009 ft | 168 kts | 251° |
| 2026-04-29 03:37 | -41.37000 | 173.97835 | 10002 ft | 169 kts | 250° |
| 2026-04-29 03:37 | -41.37481 | 173.96402 | 10000 ft | 169 kts | 250° |
| 2026-04-29 03:37 | -41.37949 | 173.94963 | 10000 ft | 169 kts | 251° |
| 2026-04-29 03:38 | -41.38421 | 173.93535 | 10000 ft | 170 kts | 251° |
| 2026-04-29 03:38 | -41.38893 | 173.92087 | 10000 ft | 170 kts | 250° |
| 2026-04-29 03:38 | -41.39372 | 173.90637 | 10000 ft | 170 kts | 251° |
| 2026-04-29 03:38 | -41.39683 | 173.89682 | 10001 ft | 170 kts | 250° |
| 2026-04-29 03:39 | -41.40317 | 173.87762 | 10004 ft | 170 kts | 250° |
| 2026-04-29 03:39 | -41.40634 | 173.86804 | 10004 ft | 170 kts | 250° |
| 2026-04-29 03:39 | -41.41108 | 173.85374 | 10004 ft | 170 kts | 250° |
| 2026-04-29 03:39 | -41.41587 | 173.83928 | 10003 ft | 170 kts | 250° |
| 2026-04-29 03:40 | -41.42060 | 173.82490 | 10003 ft | 170 kts | 251° |
| 2026-04-29 03:40 | -41.42527 | 173.81038 | 10003 ft | 170 kts | 250° |
| 2026-04-29 03:40 | -41.43000 | 173.79603 | 10003 ft | 170 kts | 250° |
| 2026-04-29 03:40 | -41.43462 | 173.78173 | 10003 ft | 170 kts | 251° |
| 2026-04-29 03:41 | -41.43940 | 173.76712 | 10003 ft | 170 kts | 250° |
| 2026-04-29 03:41 | -41.44409 | 173.75274 | 10003 ft | 170 kts | 251° |
| 2026-04-29 03:41 | -41.44876 | 173.73839 | 10003 ft | 170 kts | 250° |
| 2026-04-29 03:41 | -41.45348 | 173.72392 | 10004 ft | 170 kts | 251° |
| 2026-04-29 03:42 | -41.45824 | 173.70922 | 10005 ft | 170 kts | 250° |
| 2026-04-29 03:42 | -41.46296 | 173.69483 | 10005 ft | 170 kts | 250° |
| 2026-04-29 03:42 | -41.46909 | 173.68128 | 10008 ft | 173 kts | 239° |
| 2026-04-29 03:42 | -41.47641 | 173.66848 | 10009 ft | 173 kts | 236° |
| 2026-04-29 03:43 | -41.48382 | 173.65593 | 10022 ft | 173 kts | 236° |
| 2026-04-29 03:43 | -41.49131 | 173.64326 | 10015 ft | 174 kts | 237° |
| 2026-04-29 03:43 | -41.49877 | 173.63048 | 10011 ft | 174 kts | 237° |
| 2026-04-29 03:43 | -41.50616 | 173.61775 | 10011 ft | 174 kts | 237° |
| 2026-04-29 03:44 | -41.51356 | 173.60501 | 10010 ft | 174 kts | 237° |
| 2026-04-29 03:44 | -41.52095 | 173.59227 | 10010 ft | 174 kts | 237° |
| 2026-04-29 03:44 | -41.52830 | 173.57957 | 10010 ft | 174 kts | 238° |
| 2026-04-29 03:44 | -41.53554 | 173.56672 | 10010 ft | 173 kts | 238° |
| 2026-04-29 03:45 | -41.54285 | 173.55394 | 10010 ft | 174 kts | 237° |
| 2026-04-29 03:45 | -41.55015 | 173.54105 | 10009 ft | 173 kts | 238° |
| 2026-04-29 03:45 | -41.55748 | 173.52822 | 10009 ft | 174 kts | 237° |
| 2026-04-29 03:45 | -41.56474 | 173.51536 | 10009 ft | 174 kts | 238° |
| 2026-04-29 03:46 | -41.57201 | 173.50263 | 10009 ft | 173 kts | 238° |
| 2026-04-29 03:46 | -41.57799 | 173.48868 | 10013 ft | 170 kts | 250° |
| 2026-04-29 03:46 | -41.58217 | 173.47398 | 10014 ft | 170 kts | 254° |
| 2026-04-29 03:46 | -41.58598 | 173.45925 | 10015 ft | 170 kts | 254° |
| 2026-04-29 03:47 | -41.59001 | 173.44420 | 10016 ft | 170 kts | 253° |
| 2026-04-29 03:47 | -41.59420 | 173.42937 | 10022 ft | 170 kts | 251° |
| 2026-04-29 03:47 | -41.59850 | 173.41470 | 10031 ft | 171 kts | 251° |
| 2026-04-29 03:47 | -41.60289 | 173.39991 | 10034 ft | 171 kts | 251° |
| 2026-04-29 03:48 | -41.60714 | 173.38502 | 10033 ft | 172 kts | 251° |
| 2026-04-29 03:48 | -41.61146 | 173.37016 | 10033 ft | 172 kts | 251° |
| 2026-04-29 03:48 | -41.61580 | 173.35533 | 10033 ft | 172 kts | 251° |
| 2026-04-29 03:48 | -41.62024 | 173.34018 | 10031 ft | 172 kts | 251° |
| 2026-04-29 03:49 | -41.62454 | 173.32555 | 10033 ft | 172 kts | 251° |
| 2026-04-29 03:49 | -41.62885 | 173.31074 | 10032 ft | 172 kts | 252° |
| 2026-04-29 03:49 | -41.63316 | 173.29558 | 10030 ft | 172 kts | 251° |
| 2026-04-29 03:49 | -41.63745 | 173.28087 | 10030 ft | 172 kts | 251° |
| 2026-04-29 03:50 | -41.64178 | 173.26576 | 10028 ft | 172 kts | 251° |
| 2026-04-29 03:50 | -41.64611 | 173.25086 | 10025 ft | 172 kts | 252° |
| 2026-04-29 03:50 | -41.64923 | 173.23573 | 10015 ft | 170 kts | 268° |
| 2026-04-29 03:50 | -41.64767 | 173.22019 | 10037 ft | 169 kts | 283° |
| 2026-04-29 03:51 | -41.64446 | 173.20499 | 10033 ft | 170 kts | 285° |
| 2026-04-29 03:51 | -41.64118 | 173.18976 | 10016 ft | 171 kts | 284° |
| 2026-04-29 03:51 | -41.63823 | 173.17436 | 10003 ft | 172 kts | 282° |
| 2026-04-29 03:51 | -41.63559 | 173.15868 | 10002 ft | 172 kts | 281° |
| 2026-04-29 03:52 | -41.63308 | 173.14314 | 9999 ft | 172 kts | 281° |
| 2026-04-29 03:52 | -41.63056 | 173.12734 | 10000 ft | 172 kts | 281° |
| 2026-04-29 03:52 | -41.62645 | 173.11252 | 9981 ft | 175 kts | 302° |
| 2026-04-29 03:52 | -41.61772 | 173.10149 | 10008 ft | 177 kts | 319° |
| 2026-04-29 03:53 | -41.60741 | 173.09205 | 10000 ft | 178 kts | 322° |
| 2026-04-29 03:53 | -41.59724 | 173.08279 | 10000 ft | 177 kts | 320° |
| 2026-04-29 03:53 | -41.58739 | 173.07301 | 9998 ft | 177 kts | 318° |
| 2026-04-29 03:53 | -41.57772 | 173.06283 | 9999 ft | 177 kts | 317° |
| 2026-04-29 03:54 | -41.56810 | 173.05263 | 10000 ft | 177 kts | 317° |
| 2026-04-29 03:54 | -41.55830 | 173.04251 | 9998 ft | 177 kts | 318° |
| 2026-04-29 03:54 | -41.54859 | 173.03243 | 9998 ft | 177 kts | 317° |
| 2026-04-29 03:54 | -41.53948 | 173.02290 | 9978 ft | 155 kts | 317° |
| 2026-04-29 03:55 | -41.53150 | 173.01465 | 9960 ft | 137 kts | 316° |
| 2026-04-29 03:55 | -41.52294 | 173.00921 | 9687 ft | 147 kts | 348° |
| 2026-04-29 03:55 | -41.51298 | 173.01363 | 9467 ft | 155 kts | 24° |
| 2026-04-29 03:55 | -41.50408 | 173.02171 | 9223 ft | 156 kts | 28° |
| 2026-04-29 03:56 | -41.49518 | 173.03031 | 8969 ft | 156 kts | 29° |
| 2026-04-29 03:56 | -41.48644 | 173.03883 | 8720 ft | 157 kts | 29° |
| 2026-04-29 03:56 | -41.47767 | 173.04740 | 8448 ft | 157 kts | 29° |
| 2026-04-29 03:56 | -41.46879 | 173.05607 | 8147 ft | 158 kts | 29° |
| 2026-04-29 03:57 | -41.45989 | 173.06478 | 7848 ft | 159 kts | 29° |
| 2026-04-29 03:57 | -41.45082 | 173.07359 | 7550 ft | 160 kts | 28° |
| 2026-04-29 03:57 | -41.44178 | 173.08229 | 7277 ft | 155 kts | 28° |
| 2026-04-29 03:57 | -41.43366 | 173.09030 | 7014 ft | 136 kts | 27° |
| 2026-04-29 03:58 | -41.42668 | 173.09720 | 6738 ft | 116 kts | 25° |
| 2026-04-29 03:58 | -41.42013 | 173.10358 | 6391 ft | 113 kts | 24° |
| 2026-04-29 03:58 | -41.41389 | 173.10961 | 6070 ft | 112 kts | 23° |
| 2026-04-29 03:58 | -41.40757 | 173.11570 | 5760 ft | 111 kts | 22° |
| 2026-04-29 03:59 | -41.40135 | 173.12169 | 5457 ft | 111 kts | 22° |
| 2026-04-29 03:59 | -41.39503 | 173.12784 | 5153 ft | 112 kts | 22° |
| 2026-04-29 03:59 | -41.38875 | 173.13389 | 4855 ft | 112 kts | 22° |
| 2026-04-29 03:59 | -41.38251 | 173.13991 | 4558 ft | 111 kts | 24° |
| 2026-04-29 04:00 | -41.37626 | 173.14594 | 4257 ft | 110 kts | 24° |
| 2026-04-29 04:00 | -41.37011 | 173.15186 | 3959 ft | 109 kts | 25° |
| 2026-04-29 04:00 | -41.36402 | 173.15774 | 3661 ft | 108 kts | 26° |
| 2026-04-29 04:00 | -41.35803 | 173.16353 | 3364 ft | 107 kts | 26° |
| 2026-04-29 04:01 | -41.35200 | 173.16937 | 3061 ft | 106 kts | 27° |
| 2026-04-29 04:01 | -41.34616 | 173.17499 | 2766 ft | 104 kts | 28° |
| 2026-04-29 04:01 | -41.34023 | 173.18051 | 2446 ft | 104 kts | 27° |
| 2026-04-29 04:01 | -41.33404 | 173.18591 | 2043 ft | 103 kts | 34° |
| 2026-04-29 04:02 | -41.32865 | 173.18984 | 1749 ft | 84 kts | 28° |
| 2026-04-29 04:02 | -41.32385 | 173.19424 | 1395 ft | 87 kts | 31° |
| 2026-04-29 04:02 | -41.31877 | 173.19925 | 1009 ft | 95 kts | 33° |
| 2026-04-29 04:02 | -41.31363 | 173.20445 | 721 ft | 90 kts | 35° |
| 2026-04-29 04:03 | -41.30911 | 173.20958 | 486 ft | 78 kts | 40° |
| 2026-04-29 04:03 | -41.30524 | 173.21425 | 223 ft | 75 kts | 44° |
| 2026-04-29 04:03 | -41.30161 | 173.21862 | 43 ft | 64 kts | 40° |
| 2026-04-29 04:03 | -41.29915 | 173.22158 | 15 ft | 21 kts | 41° |
| 2026-04-29 04:04 | -41.29899 | 173.22176 | 15 ft | 0 kts | 40° |